Time;durP1;ratioP1;P1;durP2;ratioP2;P2;SDS_P1;SDS_P2;PMS_P1;PMS_P2;Temp;Humidity;BMP_temperature;BMP_pressure;BME280_temperature;BME280_humidity;BME280_pressure;Samples;Min_cycle;Max_cycle;Signal;HPM_P1;HPM_P2
2022/09/01 00:01:48;;;;;;;7.20;6.35;;;;;;;20.77;53.68;100172.34;4978223;28;20058;-87
2022/09/01 00:04:18;;;;;;;9.02;5.47;;;;;;;20.73;53.66;100167.53;5012532;28;20046;-87
2022/09/01 00:06:46;;;;;;;7.65;6.05;;;;;;;20.74;53.39;100167.34;4987064;28;20046;-87
2022/09/01 00:09:17;;;;;;;10.27;5.93;;;;;;;20.65;54.26;100170.34;4986123;28;20035;-87
2022/09/01 00:11:47;;;;;;;8.90;5.68;;;;;;;20.69;53.92;100168.97;4967219;28;20057;-87
2022/09/01 00:14:18;;;;;;;9.50;5.53;;;;;;;20.62;53.95;100170.75;4969453;28;20077;-86
2022/09/01 00:17:02;;;;;;;7.47;5.90;;;;;;;20.55;53.81;100174.19;4932635;28;20042;-87
2022/09/01 00:19:29;;;;;;;7.63;6.32;;;;;;;20.67;53.51;100165.63;4999761;28;20495;-88
2022/09/01 00:21:56;;;;;;;10.60;6.50;;;;;;;20.55;54.05;100166.09;4986011;28;20129;-88
2022/09/01 00:24:24;;;;;;;6.70;5.97;;;;;;;20.47;54.22;100165.38;4968832;28;20038;-87
2022/09/01 00:26:53;;;;;;;9.98;6.07;;;;;;;20.41;54.66;100161.59;4985946;28;20042;-87
2022/09/01 00:29:20;;;;;;;8.32;5.80;;;;;;;20.37;54.93;100153.03;4977241;28;20042;-87
2022/09/01 00:31:47;;;;;;;8.90;6.00;;;;;;;20.43;54.66;100156.00;4966559;28;20046;-87
2022/09/01 00:34:15;;;;;;;8.73;6.10;;;;;;;20.36;54.72;100153.25;4970037;28;20046;-88
2022/09/01 00:36:43;;;;;;;12.40;5.80;;;;;;;20.37;54.70;100163.81;4980028;28;20569;-87
2022/09/01 00:39:10;;;;;;;12.52;6.28;;;;;;;20.33;54.95;100159.03;4951356;28;20053;-87
2022/09/01 00:41:38;;;;;;;8.88;6.03;;;;;;;20.28;55.26;100156.06;4967399;28;20398;-88
2022/09/01 00:44:10;;;;;;;8.40;6.22;;;;;;;20.20;55.24;100156.16;5012698;28;20047;-88
2022/09/01 00:46:45;;;;;;;7.25;6.00;;;;;;;20.18;55.45;100159.06;4936222;28;20391;-86
2022/09/01 00:49:34;;;;;;;8.07;6.18;;;;;;;20.09;55.98;100149.41;4980883;28;20054;-88
2022/09/01 00:52:12;;;;;;;7.15;5.90;;;;;;;20.13;55.65;100150.72;4966712;28;20046;-88
2022/09/01 00:54:44;;;;;;;7.65;5.90;;;;;;;20.25;55.49;100154.59;4979248;28;20042;-87
2022/09/01 00:57:12;;;;;;;10.05;5.88;;;;;;;20.34;55.21;100158.81;5000009;28;20537;-88
2022/09/01 00:59:45;;;;;;;7.55;5.40;;;;;;;20.34;55.51;100158.00;5002456;28;20053;-88
2022/09/01 01:02:12;;;;;;;7.25;5.50;;;;;;;20.34;55.27;100156.13;4968127;28;20112;-87
2022/09/01 01:04:39;;;;;;;7.75;5.50;;;;;;;20.37;55.31;100152.22;4952253;28;20479;-87
2022/09/01 01:07:08;;;;;;;8.13;5.70;;;;;;;20.38;55.18;100153.91;4985917;28;20129;-88
2022/09/01 01:09:39;;;;;;;6.18;5.57;;;;;;;20.30;55.65;100152.16;4968529;28;20054;-88
2022/09/01 01:12:12;;;;;;;10.60;6.45;;;;;;;20.36;55.63;100143.28;4968105;28;20046;-87
2022/09/01 01:14:40;;;;;;;8.30;6.03;;;;;;;20.41;55.29;100141.88;4951494;28;20047;-88
2022/09/01 01:17:11;;;;;;;8.95;5.40;;;;;;;20.33;55.88;100146.38;4971971;28;20046;-88
2022/09/01 01:23:04;;;;;;;7.28;5.82;;;;;;;20.15;56.66;100141.41;4952450;28;21763;-88
2022/09/01 01:25:41;;;;;;;9.38;6.38;;;;;;;20.19;56.31;100141.03;4914654;28;20073;-87
2022/09/01 01:28:39;;;;;;;7.82;5.82;;;;;;;20.01;57.08;100136.88;5016672;28;20049;-88
2022/09/01 01:31:11;;;;;;;8.05;5.55;;;;;;;20.28;56.28;100137.19;4910428;28;20070;-89
2022/09/01 01:33:40;;;;;;;;;;;;;;;19.87;57.93;100133.22;4985574;28;20053;-89
2022/09/01 01:36:24;;;;;;;11.10;6.00;;;;;;;20.13;57.00;100131.84;4969876;28;19928;-88
2022/09/01 01:38:52;;;;;;;8.90;5.88;;;;;;;20.23;56.60;100131.53;4967122;28;20043;-88
2022/09/01 01:41:20;;;;;;;8.55;6.32;;;;;;;20.24;56.31;100133.19;4965505;28;20045;-88
2022/09/01 01:43:47;;;;;;;9.32;6.72;;;;;;;20.20;56.57;100137.28;4969962;28;20050;-87
2022/09/01 01:46:16;;;;;;;8.52;6.25;;;;;;;20.19;56.89;100133.75;4983793;28;20042;-87
2022/09/01 01:48:46;;;;;;;9.05;6.63;;;;;;;20.21;56.99;100139.81;4967324;28;20130;-87
2022/09/01 01:51:18;;;;;;;;;;;;;;;19.75;58.66;100137.41;4921338;28;20431;-88
2022/09/01 01:53:51;;;;;;;7.72;6.78;;;;;;;20.13;57.09;100140.75;4985142;28;19930;-87
2022/09/01 01:56:21;;;;;;;9.07;5.82;;;;;;;20.20;56.87;100148.06;4963548;28;20080;-88
2022/09/01 01:58:52;;;;;;;9.73;6.30;;;;;;;20.17;57.17;100144.75;4965947;28;20046;-87
2022/09/01 02:01:24;;;;;;;9.43;6.35;;;;;;;19.99;58.04;100143.50;4983652;28;20046;-87
2022/09/01 02:03:53;;;;;;;9.02;7.10;;;;;;;20.13;57.37;100137.25;4949671;28;20141;-87
2022/09/01 02:06:23;;;;;;;8.63;7.18;;;;;;;20.14;57.21;100144.28;4981621;28;20085;-88
2022/09/01 02:09:01;;;;;;;8.80;7.13;;;;;;;20.13;57.57;100135.38;4962976;28;20071;-88
2022/09/01 02:11:32;;;;;;;9.63;6.28;;;;;;;20.18;57.45;100142.91;5012276;28;20609;-88
2022/09/01 02:13:59;;;;;;;11.30;7.72;;;;;;;20.16;57.36;100145.75;4979951;28;20499;-87
2022/09/01 02:16:28;;;;;;;8.25;6.68;;;;;;;20.14;57.52;100146.97;4980259;28;20502;-88
2022/09/01 02:18:55;;;;;;;9.20;6.78;;;;;;;20.09;58.11;100139.47;4982229;28;20046;-87
2022/09/01 02:21:24;;;;;;;10.43;7.10;;;;;;;20.09;58.24;100142.16;4995570;28;20057;-88
2022/09/01 02:23:59;;;;;;;9.82;7.60;;;;;;;19.93;58.92;100140.53;4983181;28;20817;-88
2022/09/01 02:26:37;;;;;;;11.77;7.07;;;;;;;19.92;58.90;100146.09;4999450;28;21058;-88
2022/09/01 02:29:16;;;;;;;8.55;7.05;;;;;;;20.00;58.85;100137.91;4976041;28;20502;-87
2022/09/01 02:31:54;;;;;;;9.82;6.32;;;;;;;20.06;58.52;100144.41;5006574;28;20046;-88
2022/09/01 02:34:23;;;;;;;13.80;6.43;;;;;;;19.98;58.77;100134.56;4964570;28;20510;-88
2022/09/01 02:36:52;;;;;;;7.63;5.97;;;;;;;19.91;59.04;100141.75;4952189;28;20050;-88
2022/09/01 02:39:27;;;;;;;9.43;6.95;;;;;;;19.82;59.68;100134.78;4980738;28;20042;-87
2022/09/01 02:41:54;;;;;;;8.33;6.80;;;;;;;19.91;59.27;100136.34;4962842;28;20121;-88
2022/09/01 02:44:26;;;;;;;9.90;7.00;;;;;;;19.90;59.27;100137.38;4967386;28;20524;-87
2022/09/01 02:46:53;;;;;;;9.80;6.53;;;;;;;19.91;58.93;100131.78;4950137;28;20079;-88
2022/09/01 02:49:28;;;;;;;7.68;6.50;;;;;;;19.94;58.92;100134.09;4966518;28;20058;-88
2022/09/01 02:52:00;;;;;;;7.85;6.40;;;;;;;19.98;59.16;100139.13;4965077;28;20050;-87
2022/09/01 02:54:31;;;;;;;9.48;7.07;;;;;;;19.87;59.59;100135.03;5000273;28;20667;-88
2022/09/01 02:56:58;;;;;;;9.23;7.35;;;;;;;19.91;59.31;100129.09;4964288;28;20062;-88
2022/09/01 02:59:27;;;;;;;10.35;6.60;;;;;;;19.91;59.67;100137.19;4946592;28;20077;-87
2022/09/01 03:01:57;;;;;;;10.25;7.15;;;;;;;19.92;59.44;100128.09;4982181;28;20046;-87
2022/09/01 03:04:25;;;;;;;10.45;6.82;;;;;;;19.96;59.18;100125.84;4981589;28;20047;-87
2022/09/01 03:06:53;;;;;;;8.18;6.63;;;;;;;19.95;59.57;100125.00;4984448;28;20449;-88
2022/09/01 03:09:21;;;;;;;7.95;6.55;;;;;;;19.98;59.76;100128.34;4985835;28;20069;-88
2022/09/01 03:11:51;;;;;;;9.68;6.50;;;;;;;19.88;60.34;100128.66;4968255;28;20046;-88
2022/09/01 03:14:20;;;;;;;10.65;7.07;;;;;;;19.94;59.90;100122.50;4982598;28;20466;-88
2022/09/01 03:16:48;;;;;;;10.27;6.80;;;;;;;19.90;60.20;100122.03;4959732;28;20038;-88
2022/09/01 03:19:21;;;;;;;11.90;6.60;;;;;;;19.81;60.83;100111.56;4987142;28;20042;-88
2022/09/01 03:21:49;;;;;;;;;;;;;;;19.42;62.16;100118.09;4984701;28;20124;-89
2022/09/01 03:24:21;;;;;;;8.18;6.63;;;;;;;19.78;60.61;100115.47;4955991;28;20360;-88
2022/09/01 03:26:50;;;;;;;11.40;7.00;;;;;;;19.79;60.39;100110.91;4991858;28;20109;-88
2022/09/01 03:29:19;;;;;;;7.78;6.75;;;;;;;19.84;60.24;100125.47;4985395;28;20050;-88
2022/09/01 03:31:46;;;;;;;9.60;6.75;;;;;;;19.82;60.40;100122.16;5004441;28;20490;-88
2022/09/01 03:34:15;;;;;;;9.43;6.80;;;;;;;19.77;60.59;100121.03;4981743;28;20043;-88
2022/09/01 03:36:49;;;;;;;10.55;6.90;;;;;;;19.82;60.24;100116.78;4968567;28;20521;-87
2022/09/01 03:39:26;;;;;;;13.90;7.00;;;;;;;19.75;60.46;100120.41;4997764;28;20132;-87
2022/09/01 03:41:54;;;;;;;8.18;6.43;;;;;;;19.72;60.92;100122.44;4960111;28;20512;-88
2022/09/01 03:44:20;;;;;;;9.52;7.22;;;;;;;19.71;60.59;100123.47;4969391;28;20127;-88
2022/09/01 03:46:47;;;;;;;9.75;7.38;;;;;;;19.73;60.45;100120.59;4977459;28;20046;-88
2022/09/01 03:49:15;;;;;;;12.25;7.57;;;;;;;19.73;60.71;100126.81;4986929;28;20459;-88
2022/09/01 03:51:44;;;;;;;9.80;6.97;;;;;;;19.68;60.77;100134.63;4953534;28;20510;-88
2022/09/01 03:54:11;;;;;;;8.23;6.72;;;;;;;19.64;61.02;100127.06;4966329;28;20050;-88
2022/09/01 03:56:40;;;;;;;10.23;6.63;;;;;;;19.60;60.88;100129.31;4969849;28;20568;-89
2022/09/01 03:59:15;;;;;;;8.50;7.25;;;;;;;19.58;61.03;100123.25;4952824;28;20054;-88
2022/09/01 04:01:45;;;;;;;8.00;6.50;;;;;;;19.61;61.48;100130.13;4968882;28;20062;-88
2022/09/01 04:04:15;;;;;;;11.23;7.30;;;;;;;19.68;60.91;100133.78;4980774;28;20046;-88
2022/09/01 04:11:17;;;;;;;9.82;7.07;;;;;;;19.61;61.25;100138.22;4957563;28;20041;-89
2022/09/01 04:13:47;;;;;;;9.07;7.30;;;;;;;19.59;61.34;100138.41;4981719;28;20054;-87
2022/09/01 04:19:19;;;;;;;10.95;7.05;;;;;;;19.56;61.84;100136.09;4967625;28;20408;-90
2022/09/01 04:21:53;;;;;;;9.20;6.72;;;;;;;19.65;61.40;100134.97;4930928;28;20054;-91
2022/09/01 04:24:27;;;;;;;10.93;6.82;;;;;;;19.64;61.29;100130.63;4970175;28;20148;-91
2022/09/01 04:26:57;;;;;;;12.23;7.30;;;;;;;19.65;61.23;100131.44;4983358;28;20096;-91
2022/09/01 04:29:27;;;;;;;9.13;7.70;;;;;;;19.63;61.33;100128.94;4977171;28;20065;-91
2022/09/01 04:32:02;;;;;;;12.10;7.70;;;;;;;19.59;61.35;100129.47;4966643;28;20049;-91
2022/09/01 04:34:41;;;;;;;11.18;7.10;;;;;;;19.52;61.75;100129.41;4952111;28;20042;-91
2022/09/01 04:37:16;;;;;;;13.75;9.07;;;;;;;19.52;61.56;100130.25;4938695;28;20049;-90
2022/09/01 04:39:51;;;;;;;9.45;6.95;;;;;;;19.49;61.88;100124.41;4897470;28;20405;-90
2022/09/01 04:42:24;;;;;;;12.18;7.85;;;;;;;19.53;61.50;100136.47;4924794;28;20055;-91
2022/09/01 04:44:53;;;;;;;9.00;7.45;;;;;;;19.55;60.89;100133.59;4912298;28;20612;-91
2022/09/01 04:47:28;;;;;;;10.02;7.18;;;;;;;19.54;61.13;100132.75;4896756;28;20640;-91
2022/09/01 04:50:12;;;;;;;13.35;7.68;;;;;;;19.55;61.09;100130.91;4940414;28;20131;-91
2022/09/01 04:52:43;;;;;;;13.70;8.15;;;;;;;19.49;61.38;100124.41;4947313;28;20471;-91
2022/09/01 04:55:23;;;;;;;9.35;7.63;;;;;;;19.45;61.54;100131.19;4911735;28;20071;-90
2022/09/01 04:57:51;;;;;;;10.57;7.45;;;;;;;19.37;61.66;100133.97;4923853;28;20063;-91
2022/09/01 05:00:23;;;;;;;14.43;8.27;;;;;;;19.42;61.70;100134.25;4915992;28;20047;-91
2022/09/01 05:02:53;;;;;;;11.50;8.45;;;;;;;19.43;61.85;100143.97;4912372;28;20060;-90
2022/09/01 05:05:23;;;;;;;16.77;8.82;;;;;;;19.36;61.87;100141.22;4895056;28;20507;-90
2022/09/01 05:07:54;;;;;;;11.75;8.60;;;;;;;19.32;62.03;100147.16;4898954;28;20047;-90
2022/09/01 05:10:28;;;;;;;13.02;9.65;;;;;;;19.33;61.76;100144.25;4956002;28;20077;-90
2022/09/01 05:13:16;;;;;;;11.88;9.02;;;;;;;19.32;62.02;100141.78;4935311;28;20046;-90
2022/09/01 05:15:48;;;;;;;15.80;8.75;;;;;;;19.27;62.33;100134.25;4963947;28;20053;-90
2022/09/01 05:18:22;;;;;;;12.13;8.82;;;;;;;19.26;62.35;100141.50;4996508;28;20038;-91
2022/09/01 05:20:51;;;;;;;10.98;7.55;;;;;;;19.32;62.31;100139.91;4948249;28;20109;-90
2022/09/01 05:23:18;;;;;;;11.23;8.57;;;;;;;19.37;62.32;100144.75;4991907;28;20058;-91
2022/09/01 05:25:48;;;;;;;13.98;9.10;;;;;;;19.37;62.40;100145.56;4929189;28;1106917;-90
2022/09/01 05:28:17;;;;;;;9.90;7.80;;;;;;;19.49;61.98;100143.25;4967306;28;20378;-91
2022/09/01 05:30:46;;;;;;;12.95;8.73;;;;;;;19.57;61.65;100153.09;4945648;28;20134;-91
2022/09/01 05:33:15;;;;;;;11.70;9.57;;;;;;;19.59;61.68;100142.94;4967359;28;20125;-91
2022/09/01 05:35:54;;;;;;;11.60;9.15;;;;;;;19.57;62.07;100150.41;4969752;28;20117;-91
2022/09/01 05:38:23;;;;;;;12.77;9.35;;;;;;;19.62;61.76;100148.81;4945672;28;20092;-89
2022/09/01 05:41:02;;;;;;;12.93;9.27;;;;;;;19.45;62.39;100145.47;4981379;28;20430;-92
2022/09/01 05:43:30;;;;;;;10.80;8.43;;;;;;;19.70;61.54;100156.00;4933504;28;20495;-90
2022/09/01 05:45:57;;;;;;;28.25;10.23;;;;;;;19.67;61.50;100145.59;4947632;28;20050;-90
2022/09/01 05:48:38;;;;;;;12.45;9.00;;;;;;;19.71;61.33;100163.88;4978330;28;20053;-88
2022/09/01 05:51:08;;;;;;;14.20;9.52;;;;;;;19.68;61.61;100163.44;4968052;28;20042;-91
2022/09/01 05:53:58;;;;;;;16.27;9.02;;;;;;;19.65;61.52;100163.78;4929784;28;20564;-90
2022/09/01 05:56:27;;;;;;;15.38;9.73;;;;;;;19.62;61.89;100166.84;4982521;28;20054;-90
2022/09/01 05:58:54;;;;;;;12.95;8.45;;;;;;;19.67;61.57;100159.06;4967171;28;20056;-91
2022/09/01 06:01:41;;;;;;;11.93;9.63;;;;;;;19.67;61.61;100167.16;4978475;28;20524;-90
2022/09/01 06:04:15;;;;;;;12.23;9.35;;;;;;;19.65;61.63;100164.59;4992662;28;20042;-89
2022/09/01 06:06:48;;;;;;;14.70;9.13;;;;;;;19.56;61.49;100170.28;4963667;28;20047;-90
2022/09/01 06:09:32;;;;;;;12.38;9.07;;;;;;;19.58;61.43;100162.84;4943060;28;20042;-91
2022/09/01 06:12:00;;;;;;;12.65;8.02;;;;;;;19.63;61.61;100158.56;4981015;28;20057;-90
2022/09/01 06:14:27;;;;;;;13.82;9.93;;;;;;;19.63;61.39;100163.13;4962625;28;20137;-89
2022/09/01 06:16:55;;;;;;;15.50;9.85;;;;;;;19.57;61.51;100167.41;4949257;28;20128;-91
2022/09/01 06:19:22;;;;;;;13.38;9.77;;;;;;;19.63;61.18;100157.72;4949070;28;20050;-91
2022/09/01 06:21:49;;;;;;;13.65;9.20;;;;;;;19.65;61.30;100167.28;4964639;28;20395;-91
2022/09/01 06:24:16;;;;;;;16.92;10.32;;;;;;;19.64;61.09;100168.34;4958752;28;20035;-91
2022/09/01 06:26:45;;;;;;;15.10;9.48;;;;;;;19.65;61.08;100161.06;4934565;28;20046;-91
2022/09/01 06:29:14;;;;;;;15.75;9.15;;;;;;;19.64;61.37;100175.56;4963831;28;20047;-92
2022/09/01 06:31:50;;;;;;;12.70;9.05;;;;;;;19.62;61.46;100167.69;4991011;28;20066;-91
2022/09/01 06:34:18;;;;;;;14.10;10.00;;;;;;;19.72;61.37;100164.75;4957606;28;20050;-90
2022/09/01 06:36:48;;;;;;;15.40;10.88;;;;;;;19.77;61.17;100166.84;4982253;28;20050;-90
2022/09/01 06:39:18;;;;;;;14.68;10.25;;;;;;;19.73;61.44;100166.41;4997069;28;20589;-90
2022/09/01 06:41:51;;;;;;;13.18;10.18;;;;;;;19.74;61.25;100170.75;4995350;28;20117;-91
2022/09/01 06:44:23;;;;;;;14.23;10.02;;;;;;;19.76;61.47;100170.56;4965213;28;20042;-91
2022/09/01 06:46:59;;;;;;;17.50;10.60;;;;;;;19.74;61.47;100170.75;4963115;28;20532;-91
2022/09/01 06:49:33;;;;;;;17.83;10.88;;;;;;;19.75;61.57;100168.91;4997815;28;20049;-91
2022/09/01 06:52:03;;;;;;;15.18;10.30;;;;;;;19.77;61.52;100165.00;4973208;28;20054;-89
2022/09/01 06:54:34;;;;;;;13.80;10.15;;;;;;;19.82;61.67;100164.41;4984502;28;20052;-90
2022/09/01 06:57:02;;;;;;;14.18;9.95;;;;;;;19.97;60.92;100167.94;4966061;28;20042;-91
2022/09/01 06:59:50;;;;;;;14.77;10.07;;;;;;;20.00;61.12;100167.56;4947789;28;20502;-90
2022/09/01 07:02:18;;;;;;;16.05;10.63;;;;;;;19.93;61.20;100170.19;4967319;28;20042;-90
2022/09/01 07:05:20;;;;;;;15.85;11.00;;;;;;;19.92;61.58;100168.53;4878941;28;20042;-90
2022/09/01 07:08:09;;;;;;;14.88;9.45;;;;;;;19.98;61.35;100174.19;4979312;28;20051;-90
2022/09/01 07:11:23;;;;;;;13.45;9.90;;;;;;;19.93;61.81;100172.03;4948595;28;20053;-90
2022/09/01 07:14:14;;;;;;;16.85;10.02;;;;;;;20.11;61.33;100174.31;4962161;28;20050;-91
2022/09/01 07:16:43;;;;;;;16.00;10.13;;;;;;;20.15;61.21;100183.72;4982230;28;20402;-91
2022/09/01 07:19:18;;;;;;;15.05;10.85;;;;;;;20.17;61.40;100193.28;4950100;28;20124;-90
2022/09/01 07:21:51;;;;;;;15.23;10.52;;;;;;;20.18;61.34;100194.13;4997141;28;20061;-90
2022/09/01 07:24:38;;;;;;;17.25;10.23;;;;;;;20.21;61.37;100192.91;4943299;28;20525;-90
2022/09/01 07:27:26;;;;;;;18.88;11.30;;;;;;;20.18;61.42;100191.44;4991728;28;20053;-91
2022/09/01 07:30:08;;;;;;;17.35;11.23;;;;;;;20.06;61.72;100185.69;4998553;28;20054;-90
2022/09/01 07:32:38;;;;;;;12.70;9.88;;;;;;;20.20;61.42;100196.59;4964259;28;20046;-91
2022/09/01 07:35:37;;;;;;;14.48;9.32;;;;;;;20.16;61.77;100194.31;4961972;28;20158;-91
2022/09/01 07:39:00;;;;;;;20.70;10.98;;;;;;;20.07;61.84;100190.03;4924604;28;20057;-91
2022/09/01 07:43:07;;;;;;;15.23;10.30;;;;;;;20.09;61.97;100201.47;4921565;28;21498;-91
2022/09/01 07:45:54;;;;;;;15.25;10.35;;;;;;;20.35;60.90;100192.88;4926360;28;20498;-91
2022/09/01 07:48:27;;;;;;;16.65;10.05;;;;;;;20.34;61.06;100198.44;4962343;28;20034;-90
2022/09/01 07:51:17;;;;;;;14.30;10.18;;;;;;;20.42;60.71;100202.88;4927819;28;20162;-91
2022/09/01 07:54:03;;;;;;;18.75;10.65;;;;;;;20.35;61.03;100197.41;4961773;28;20101;-91
2022/09/01 07:56:30;;;;;;;15.50;10.65;;;;;;;20.40;60.70;100200.38;4966446;28;20046;-90
2022/09/01 07:59:03;;;;;;;15.45;10.43;;;;;;;20.36;60.63;100199.09;4984044;28;20104;-91
2022/09/01 08:01:32;;;;;;;17.73;11.43;;;;;;;20.24;60.69;100204.13;4955221;28;20058;-91
2022/09/01 08:04:01;;;;;;;18.40;11.63;;;;;;;20.31;60.63;100205.06;4981377;28;20050;-88
2022/09/01 08:06:28;;;;;;;16.30;11.32;;;;;;;20.31;60.79;100207.75;4981368;28;20042;-91
2022/09/01 08:09:09;;;;;;;20.48;11.30;;;;;;;20.43;60.22;100210.78;4962602;28;20491;-88
2022/09/01 08:11:37;;;;;;;;;;;;;;;20.23;61.03;100201.66;4984681;28;20050;-89
2022/09/01 08:14:25;;;;;;;14.75;10.07;;;;;;;20.64;60.15;100206.47;4964997;28;19925;-89
2022/09/01 08:16:52;;;;;;;21.58;11.15;;;;;;;20.69;59.98;100207.56;4984268;28;20073;-89
2022/09/01 08:19:19;;;;;;;16.98;9.65;;;;;;;20.75;59.52;100206.78;4982747;28;20047;-89
2022/09/01 08:22:05;;;;;;;11.55;8.52;;;;;;;20.83;59.85;100200.41;4974335;28;20046;-89
2022/09/01 08:24:52;;;;;;;15.73;9.88;;;;;;;20.94;59.34;100199.91;4950149;28;20054;-89
2022/09/01 08:27:20;;;;;;;12.98;8.88;;;;;;;20.95;59.71;100190.78;4985364;28;20073;-88
2022/09/01 08:29:47;;;;;;;14.38;9.73;;;;;;;20.95;59.15;100201.56;4968801;28;20035;-88
2022/09/01 08:32:14;;;;;;;12.85;9.40;;;;;;;21.02;58.92;100197.06;4979477;28;20050;-88
2022/09/01 08:34:42;;;;;;;15.60;8.98;;;;;;;21.07;58.71;100198.34;4953840;28;20056;-88
2022/09/01 08:37:09;;;;;;;12.05;8.88;;;;;;;21.13;58.62;100209.19;4969455;28;20052;-89
2022/09/01 08:39:37;;;;;;;11.60;8.57;;;;;;;21.13;58.40;100201.09;4983355;28;20057;-89
2022/09/01 08:42:13;;;;;;;15.95;9.85;;;;;;;21.19;57.94;100197.63;4968892;28;20494;-89
2022/09/01 08:45:08;;;;;;;13.02;8.38;;;;;;;21.10;58.19;100197.97;4984822;28;20050;-88
2022/09/01 08:47:35;;;;;;;18.48;8.52;;;;;;;21.22;58.37;100197.22;4935219;28;20510;-89
2022/09/01 08:50:22;;;;;;;12.43;8.55;;;;;;;21.27;58.16;100201.19;4971064;28;20493;-90
2022/09/01 08:53:12;;;;;;;11.18;8.45;;;;;;;21.25;57.75;100196.00;4971349;28;20042;-89
2022/09/01 08:55:43;;;;;;;9.48;7.82;;;;;;;21.29;57.88;100197.25;4979463;28;20562;-90
2022/09/01 08:58:14;;;;;;;10.67;8.27;;;;;;;21.30;57.91;100203.53;4949794;28;20077;-89
2022/09/01 09:01:08;;;;;;;14.13;8.38;;;;;;;21.24;57.26;100200.56;4952762;28;20542;-89
2022/09/01 09:04:26;;;;;;;10.25;7.65;;;;;;;21.18;57.34;100193.22;4966199;28;20058;-88
2022/09/01 09:07:25;;;;;;;12.35;8.05;;;;;;;21.17;57.25;100190.75;4874433;28;20059;-89
2022/09/01 09:09:58;;;;;;;10.95;7.68;;;;;;;21.27;57.19;100190.38;4922872;28;20105;-89
2022/09/01 09:12:51;;;;;;;8.65;7.22;;;;;;;21.23;56.88;100189.94;4961588;28;20222;-88
2022/09/01 09:15:50;;;;;;;13.38;7.40;;;;;;;21.19;56.95;100191.38;4917568;28;20054;-90
2022/09/01 09:18:28;;;;;;;10.30;7.55;;;;;;;21.29;56.96;100186.44;4902405;28;20053;-89
2022/09/01 09:21:32;;;;;;;12.15;8.60;;;;;;;21.24;57.13;100194.31;4997669;28;20612;-89
2022/09/01 09:24:46;;;;;;;9.90;6.50;;;;;;;21.31;57.30;100186.25;4918582;28;20047;-89
2022/09/01 09:27:30;;;;;;;9.57;7.38;;;;;;;21.41;56.93;100190.31;4910137;28;20042;-89
2022/09/01 09:30:11;;;;;;;9.57;7.13;;;;;;;21.53;56.96;100187.91;4964668;28;20054;-89
2022/09/01 09:33:05;;;;;;;8.43;6.38;;;;;;;21.51;56.79;100181.84;4983130;28;20574;-89
2022/09/01 09:35:53;;;;;;;10.52;7.25;;;;;;;21.63;56.85;100185.69;4944612;28;20535;-90
2022/09/01 09:38:27;;;;;;;8.40;6.85;;;;;;;21.63;56.69;100185.69;4967805;28;20046;-88
2022/09/01 09:40:58;;;;;;;10.90;7.88;;;;;;;21.63;56.19;100188.38;4979549;28;20398;-90
2022/09/01 09:43:58;;;;;;;9.88;7.30;;;;;;;21.58;56.08;100190.84;4973189;28;20042;-89
2022/09/01 09:46:31;;;;;;;10.27;7.15;;;;;;;21.58;55.72;100188.16;4965875;28;20065;-90
2022/09/01 09:49:18;;;;;;;;;;;;;;;21.41;56.37;100186.78;4964863;28;20124;-89
2022/09/01 09:52:00;;;;;;;8.32;6.35;;;;;;;21.60;56.01;100182.53;4918844;28;19932;-89
2022/09/01 09:54:33;;;;;;;8.77;6.85;;;;;;;21.59;55.81;100192.50;4964265;28;20049;-88
2022/09/01 09:57:30;;;;;;;9.15;6.50;;;;;;;21.55;55.85;100184.97;4932970;28;20047;-89
2022/09/01 10:00:04;;;;;;;11.93;7.88;;;;;;;21.66;56.10;100169.06;4855024;28;20507;-90
2022/09/01 10:02:43;;;;;;;7.75;6.70;;;;;;;21.62;55.99;100173.19;4914438;28;20049;-89
2022/09/01 10:05:29;;;;;;;10.70;7.50;;;;;;;21.67;56.01;100173.41;4928471;28;20047;-89
2022/09/01 10:07:57;;;;;;;9.27;7.35;;;;;;;21.83;55.79;100176.81;4902938;28;20094;-89
2022/09/01 10:10:26;;;;;;;10.80;7.65;;;;;;;21.75;55.16;100169.72;4935035;28;20141;-88
2022/09/01 10:12:54;;;;;;;9.30;7.10;;;;;;;21.75;55.30;100174.28;4943763;28;20047;-88
2022/09/01 10:15:24;;;;;;;9.68;7.22;;;;;;;21.76;55.30;100170.56;4951234;28;20057;-88
2022/09/01 10:17:53;;;;;;;10.45;6.68;;;;;;;21.74;55.25;100168.06;4912752;28;20050;-88
2022/09/01 10:20:47;;;;;;;10.55;7.13;;;;;;;21.74;55.10;100176.16;4908676;28;20039;-89
2022/09/01 10:23:14;;;;;;;10.18;7.82;;;;;;;21.76;54.83;100179.50;4938839;28;20050;-89
2022/09/01 10:25:42;;;;;;;13.63;8.70;;;;;;;21.75;55.15;100177.81;4930695;28;20442;-87
2022/09/01 10:28:16;;;;;;;12.00;8.40;;;;;;;21.71;54.91;100165.75;4945448;28;20169;-88
2022/09/01 10:30:46;;;;;;;10.07;7.60;;;;;;;21.77;54.77;100166.81;4936271;28;20039;-88
2022/09/01 10:33:15;;;;;;;13.20;9.05;;;;;;;21.73;54.79;100171.81;4941258;28;20047;-88
2022/09/01 10:35:50;;;;;;;14.07;8.70;;;;;;;21.67;55.24;100176.13;4930404;28;20454;-88
2022/09/01 10:38:23;;;;;;;12.02;8.55;;;;;;;21.69;54.58;100167.81;4960749;28;20042;-88
2022/09/01 10:41:07;;;;;;;16.73;9.18;;;;;;;21.73;54.79;100169.09;4948877;28;20513;-88
2022/09/01 10:43:42;;;;;;;10.32;8.02;;;;;;;21.76;54.78;100166.00;4923060;28;20061;-89
2022/09/01 10:46:32;;;;;;;11.70;9.13;;;;;;;21.58;54.69;100166.53;4999147;28;20565;-87
2022/09/01 10:49:43;;;;;;;10.43;8.07;;;;;;;21.65;54.78;100163.84;4863321;28;20046;-88
2022/09/01 10:56:43;;;;;;;13.95;8.75;;;;;;;21.77;54.64;100167.66;4950813;28;20096;-87
2022/09/01 10:59:23;;;;;;;13.13;9.23;;;;;;;21.88;54.76;100171.66;4945821;28;20049;-88
2022/09/01 11:02:08;;;;;;;15.13;10.15;;;;;;;21.93;54.68;100161.09;4967315;28;20077;-88
2022/09/01 11:04:53;;;;;;;11.68;8.98;;;;;;;21.98;54.41;100163.16;4986239;28;20049;-87
2022/09/01 11:07:22;;;;;;;14.70;9.07;;;;;;;22.03;54.25;100157.97;4971444;28;20058;-87
2022/09/01 11:10:42;;;;;;;11.50;8.40;;;;;;;21.96;54.27;100155.25;4989340;28;20065;-87
2022/09/01 11:13:27;;;;;;;12.95;9.40;;;;;;;22.07;53.88;100160.06;4951018;28;20415;-87
2022/09/01 11:15:54;;;;;;;11.85;8.07;;;;;;;22.20;54.08;100153.91;4990819;28;20109;-86
2022/09/01 11:18:30;;;;;;;13.60;9.10;;;;;;;22.26;53.81;100149.53;4964065;28;20503;-88
2022/09/01 11:21:18;;;;;;;13.38;9.25;;;;;;;22.29;53.32;100144.56;4980432;28;20131;-88
2022/09/01 11:23:46;;;;;;;14.70;9.05;;;;;;;22.45;53.13;100145.22;4964985;28;21084;-86
2022/09/01 11:26:31;;;;;;;12.52;8.80;;;;;;;22.46;52.66;100141.47;4983785;28;20482;-86
2022/09/01 11:28:59;;;;;;;22.30;8.32;;;;;;;22.59;52.75;100152.31;4996739;28;20537;-87
2022/09/01 11:31:39;;;;;;;9.82;7.82;;;;;;;22.54;52.21;100131.31;4970659;28;20053;-88
2022/09/01 11:34:12;;;;;;;15.00;8.73;;;;;;;22.52;51.44;100138.78;4968117;28;20053;-88
2022/09/01 11:36:48;;;;;;;14.00;9.52;;;;;;;22.55;52.25;100134.84;4971029;28;20042;-87
2022/09/01 11:39:17;;;;;;;12.23;7.72;;;;;;;22.60;52.41;100132.34;4935129;28;20125;-86
2022/09/01 11:41:47;;;;;;;14.02;8.90;;;;;;;22.61;52.18;100138.56;4988713;28;20043;-87
2022/09/01 11:44:33;;;;;;;12.90;8.88;;;;;;;22.55;51.68;100134.84;4968053;28;20070;-87
2022/09/01 11:47:10;;;;;;;11.93;9.50;;;;;;;22.47;51.41;100122.34;4949507;28;20049;-87
2022/09/01 11:49:49;;;;;;;10.70;8.73;;;;;;;22.52;51.76;100119.00;4970318;28;20046;-87
2022/09/01 11:52:17;;;;;;;14.25;8.73;;;;;;;22.59;51.59;100113.59;4985127;28;20502;-88
2022/09/01 11:54:48;;;;;;;11.10;7.75;;;;;;;22.56;51.77;100116.72;4986436;28;20043;-87
2022/09/01 11:57:32;;;;;;;12.27;8.27;;;;;;;22.54;51.33;100119.63;4971365;28;20461;-87
2022/09/01 12:00:02;;;;;;;12.27;8.32;;;;;;;22.49;50.88;100112.16;4983048;28;20038;-88
2022/09/01 12:02:44;;;;;;;11.10;7.40;;;;;;;22.42;50.66;100107.75;5000428;28;20055;-87
2022/09/01 12:05:26;;;;;;;10.82;7.72;;;;;;;22.40;50.89;100107.13;4988418;28;20491;-86
2022/09/01 12:07:53;;;;;;;10.93;8.10;;;;;;;22.48;51.19;100105.03;4949922;28;20050;-87
2022/09/01 12:10:30;;;;;;;12.20;6.82;;;;;;;22.45;50.91;100102.75;4969698;28;20046;-86
2022/09/01 12:13:05;;;;;;;9.75;8.68;;;;;;;22.53;51.21;100093.59;4980813;28;20051;-87